sensor_id;sensor_type;location;lat;lon;timestamp;temperature;humidity
7958;DHT22;4024;52.172;5.378;2022-11-20T00:02:19;0.60;99.90
7958;DHT22;4024;52.172;5.378;2022-11-20T00:04:44;0.60;99.90
7958;DHT22;4024;52.172;5.378;2022-11-20T00:07:10;0.60;99.90
7958;DHT22;4024;52.172;5.378;2022-11-20T00:09:36;0.50;99.90
7958;DHT22;4024;52.172;5.378;2022-11-20T00:12:02;0.50;99.90
7958;DHT22;4024;52.172;5.378;2022-11-20T00:14:28;0.50;99.90
7958;DHT22;4024;52.172;5.378;2022-11-20T00:16:54;0.50;99.90
7958;DHT22;4024;52.172;5.378;2022-11-20T00:19:19;0.40;99.90
7958;DHT22;4024;52.172;5.378;2022-11-20T00:21:45;0.40;99.90
7958;DHT22;4024;52.172;5.378;2022-11-20T00:24:11;0.40;99.90
7958;DHT22;4024;52.172;5.378;2022-11-20T00:26:37;0.40;99.90
7958;DHT22;4024;52.172;5.378;2022-11-20T00:29:02;0.40;99.90
7958;DHT22;4024;52.172;5.378;2022-11-20T00:31:29;0.30;99.90
7958;DHT22;4024;52.172;5.378;2022-11-20T00:33:55;0.40;99.90
7958;DHT22;4024;52.172;5.378;2022-11-20T00:36:23;0.30;99.90
7958;DHT22;4024;52.172;5.378;2022-11-20T00:38:56;0.30;99.90
7958;DHT22;4024;52.172;5.378;2022-11-20T00:41:23;0.30;99.90
7958;DHT22;4024;52.172;5.378;2022-11-20T00:43:51;0.30;99.90
7958;DHT22;4024;52.172;5.378;2022-11-20T00:46:19;0.30;99.90
7958;DHT22;4024;52.172;5.378;2022-11-20T00:48:45;0.30;99.90
7958;DHT22;4024;52.172;5.378;2022-11-20T00:51:13;0.30;99.90
7958;DHT22;4024;52.172;5.378;2022-11-20T00:53:39;0.20;99.90
7958;DHT22;4024;52.172;5.378;2022-11-20T00:56:07;0.20;99.90
7958;DHT22;4024;52.172;5.378;2022-11-20T00:58:39;0.20;99.90
7958;DHT22;4024;52.172;5.378;2022-11-20T01:01:07;0.20;99.90
7958;DHT22;4024;52.172;5.378;2022-11-20T01:03:38;0.20;99.90
7958;DHT22;4024;52.172;5.378;2022-11-20T01:06:07;0.20;99.90
7958;DHT22;4024;52.172;5.378;2022-11-20T01:08:34;0.10;99.90
7958;DHT22;4024;52.172;5.378;2022-11-20T01:11:06;0.10;99.90
7958;DHT22;4024;52.172;5.378;2022-11-20T01:13:32;0.10;99.90
7958;DHT22;4024;52.172;5.378;2022-11-20T01:16:27;0.10;99.90
7958;DHT22;4024;52.172;5.378;2022-11-20T01:18:52;0.10;99.90
7958;DHT22;4024;52.172;5.378;2022-11-20T01:21:24;0.10;99.90
7958;DHT22;4024;52.172;5.378;2022-11-20T01:23:51;0.10;99.90
7958;DHT22;4024;52.172;5.378;2022-11-20T01:26:20;0.00;99.90
7958;DHT22;4024;52.172;5.378;2022-11-20T01:28:46;0.00;99.90
7958;DHT22;4024;52.172;5.378;2022-11-20T01:33:41;0.00;99.90
7958;DHT22;4024;52.172;5.378;2022-11-20T01:36:08;0.00;99.90
7958;DHT22;4024;52.172;5.378;2022-11-20T01:38:34;0.00;99.90
7958;DHT22;4024;52.172;5.378;2022-11-20T01:41:00;-0.10;99.90
7958;DHT22;4024;52.172;5.378;2022-11-20T01:43:26;0.00;99.90
7958;DHT22;4024;52.172;5.378;2022-11-20T01:48:26;-0.10;99.90
7958;DHT22;4024;52.172;5.378;2022-11-20T01:50:54;-0.10;99.90
7958;DHT22;4024;52.172;5.378;2022-11-20T01:53:24;-0.10;99.90
7958;DHT22;4024;52.172;5.378;2022-11-20T01:55:55;-0.10;99.90
7958;DHT22;4024;52.172;5.378;2022-11-20T01:58:29;-0.10;99.90
7958;DHT22;4024;52.172;5.378;2022-11-20T02:00:55;-0.20;99.90
7958;DHT22;4024;52.172;5.378;2022-11-20T02:03:21;-0.10;99.90
7958;DHT22;4024;52.172;5.378;2022-11-20T02:06:14;-0.10;99.90
7958;DHT22;4024;52.172;5.378;2022-11-20T02:08:42;-0.20;99.90
7958;DHT22;4024;52.172;5.378;2022-11-20T02:11:08;-0.20;99.90
7958;DHT22;4024;52.172;5.378;2022-11-20T02:13:34;-0.20;99.90
7958;DHT22;4024;52.172;5.378;2022-11-20T02:16:33;-0.20;99.90
7958;DHT22;4024;52.172;5.378;2022-11-20T02:19:02;-0.30;99.90
7958;DHT22;4024;52.172;5.378;2022-11-20T02:21:40;-0.20;99.90
7958;DHT22;4024;52.172;5.378;2022-11-20T02:24:15;-0.30;99.90
7958;DHT22;4024;52.172;5.378;2022-11-20T02:26:59;-0.30;99.90
7958;DHT22;4024;52.172;5.378;2022-11-20T02:29:34;-0.30;99.90
7958;DHT22;4024;52.172;5.378;2022-11-20T02:32:02;-0.30;99.90
7958;DHT22;4024;52.172;5.378;2022-11-20T02:34:28;-0.30;99.90
7958;DHT22;4024;52.172;5.378;2022-11-20T02:36:54;-0.30;99.90
7958;DHT22;4024;52.172;5.378;2022-11-20T02:39:22;-0.30;99.90
7958;DHT22;4024;52.172;5.378;2022-11-20T02:41:48;-0.40;99.90
7958;DHT22;4024;52.172;5.378;2022-11-20T02:44:14;-0.40;99.90
7958;DHT22;4024;52.172;5.378;2022-11-20T02:46:40;-0.40;99.90
7958;DHT22;4024;52.172;5.378;2022-11-20T02:49:05;-0.40;99.90
7958;DHT22;4024;52.172;5.378;2022-11-20T02:51:31;-0.40;99.90
7958;DHT22;4024;52.172;5.378;2022-11-20T02:53:57;-0.40;99.90
7958;DHT22;4024;52.172;5.378;2022-11-20T02:56:23;-0.40;99.90
7958;DHT22;4024;52.172;5.378;2022-11-20T02:58:49;-0.40;99.90
7958;DHT22;4024;52.172;5.378;2022-11-20T03:01:15;-0.50;99.90
7958;DHT22;4024;52.172;5.378;2022-11-20T03:03:41;-0.40;99.90
7958;DHT22;4024;52.172;5.378;2022-11-20T03:06:07;-0.40;99.90
7958;DHT22;4024;52.172;5.378;2022-11-20T03:08:33;-0.50;99.90
7958;DHT22;4024;52.172;5.378;2022-11-20T03:11:06;-0.50;99.90
7958;DHT22;4024;52.172;5.378;2022-11-20T03:13:32;-0.50;99.90
7958;DHT22;4024;52.172;5.378;2022-11-20T03:15:58;-0.50;99.90
7958;DHT22;4024;52.172;5.378;2022-11-20T03:18:24;-0.60;99.90
7958;DHT22;4024;52.172;5.378;2022-11-20T03:20:49;-0.60;99.90
7958;DHT22;4024;52.172;5.378;2022-11-20T03:23:15;-0.60;99.90
7958;DHT22;4024;52.172;5.378;2022-11-20T03:25:41;-0.60;99.90
7958;DHT22;4024;52.172;5.378;2022-11-20T03:28:06;-0.60;99.90
7958;DHT22;4024;52.172;5.378;2022-11-20T03:30:32;-0.60;99.90
7958;DHT22;4024;52.172;5.378;2022-11-20T03:32:59;-0.60;99.90
7958;DHT22;4024;52.172;5.378;2022-11-20T03:35:25;-0.60;99.90
7958;DHT22;4024;52.172;5.378;2022-11-20T03:37:51;-0.60;99.90
7958;DHT22;4024;52.172;5.378;2022-11-20T03:40:17;-0.60;99.90
7958;DHT22;4024;52.172;5.378;2022-11-20T03:42:42;-0.70;99.90
7958;DHT22;4024;52.172;5.378;2022-11-20T03:45:12;-0.70;99.90
7958;DHT22;4024;52.172;5.378;2022-11-20T03:47:38;-0.70;99.90
7958;DHT22;4024;52.172;5.378;2022-11-20T03:50:04;-0.70;99.90
7958;DHT22;4024;52.172;5.378;2022-11-20T03:52:30;-0.70;99.90
7958;DHT22;4024;52.172;5.378;2022-11-20T03:54:55;-0.70;99.90
7958;DHT22;4024;52.172;5.378;2022-11-20T03:57:21;-0.70;99.90
7958;DHT22;4024;52.172;5.378;2022-11-20T03:59:46;-0.70;99.90
7958;DHT22;4024;52.172;5.378;2022-11-20T04:02:12;-0.70;99.90
7958;DHT22;4024;52.172;5.378;2022-11-20T04:04:38;-0.70;99.90
7958;DHT22;4024;52.172;5.378;2022-11-20T04:07:04;-0.70;99.90
7958;DHT22;4024;52.172;5.378;2022-11-20T04:09:30;-0.70;99.90
7958;DHT22;4024;52.172;5.378;2022-11-20T04:11:55;-0.80;99.90
7958;DHT22;4024;52.172;5.378;2022-11-20T04:14:21;-0.80;99.90
7958;DHT22;4024;52.172;5.378;2022-11-20T04:16:47;-0.80;99.90
7958;DHT22;4024;52.172;5.378;2022-11-20T04:19:14;-0.80;99.90
7958;DHT22;4024;52.172;5.378;2022-11-20T04:21:41;-0.80;99.90
7958;DHT22;4024;52.172;5.378;2022-11-20T04:24:07;-0.80;99.90
7958;DHT22;4024;52.172;5.378;2022-11-20T04:26:34;-0.80;99.90
7958;DHT22;4024;52.172;5.378;2022-11-20T04:29:00;-0.80;99.90
7958;DHT22;4024;52.172;5.378;2022-11-20T04:31:32;-0.80;99.90
7958;DHT22;4024;52.172;5.378;2022-11-20T04:34:00;-0.80;99.90
7958;DHT22;4024;52.172;5.378;2022-11-20T04:36:27;-0.90;99.90
7958;DHT22;4024;52.172;5.378;2022-11-20T04:38:54;-0.80;99.90
7958;DHT22;4024;52.172;5.378;2022-11-20T04:41:21;-0.90;99.90
7958;DHT22;4024;52.172;5.378;2022-11-20T04:43:52;-0.90;99.90
7958;DHT22;4024;52.172;5.378;2022-11-20T04:46:20;-0.90;99.90
7958;DHT22;4024;52.172;5.378;2022-11-20T04:48:46;-0.80;99.90
7958;DHT22;4024;52.172;5.378;2022-11-20T04:51:12;-0.90;99.90
7958;DHT22;4024;52.172;5.378;2022-11-20T04:53:38;-1.00;99.90
7958;DHT22;4024;52.172;5.378;2022-11-20T04:56:06;-1.00;99.90
7958;DHT22;4024;52.172;5.378;2022-11-20T04:58:34;-1.00;99.90
7958;DHT22;4024;52.172;5.378;2022-11-20T05:03:39;-1.00;99.90
7958;DHT22;4024;52.172;5.378;2022-11-20T05:06:06;-0.90;99.90
7958;DHT22;4024;52.172;5.378;2022-11-20T05:08:32;-1.00;99.90
7958;DHT22;4024;52.172;5.378;2022-11-20T05:11:02;-1.00;99.90
7958;DHT22;4024;52.172;5.378;2022-11-20T05:13:28;-1.00;99.90
7958;DHT22;4024;52.172;5.378;2022-11-20T05:15:54;-1.00;99.90
7958;DHT22;4024;52.172;5.378;2022-11-20T05:18:19;-1.00;99.90
7958;DHT22;4024;52.172;5.378;2022-11-20T05:20:45;-1.00;99.90
7958;DHT22;4024;52.172;5.378;2022-11-20T05:23:11;-1.00;99.90
7958;DHT22;4024;52.172;5.378;2022-11-20T05:25:36;-1.10;99.90
7958;DHT22;4024;52.172;5.378;2022-11-20T05:28:02;-1.10;99.90
7958;DHT22;4024;52.172;5.378;2022-11-20T05:30:27;-1.10;99.90
7958;DHT22;4024;52.172;5.378;2022-11-20T05:32:53;-1.10;99.90
7958;DHT22;4024;52.172;5.378;2022-11-20T05:35:18;-1.10;99.90
7958;DHT22;4024;52.172;5.378;2022-11-20T05:37:44;-1.10;99.90
7958;DHT22;4024;52.172;5.378;2022-11-20T05:40:10;-1.10;99.90
7958;DHT22;4024;52.172;5.378;2022-11-20T05:42:36;-1.10;99.90
7958;DHT22;4024;52.172;5.378;2022-11-20T05:45:03;-1.10;99.90
7958;DHT22;4024;52.172;5.378;2022-11-20T05:47:32;-1.10;99.90
7958;DHT22;4024;52.172;5.378;2022-11-20T05:49:58;-1.10;99.90
7958;DHT22;4024;52.172;5.378;2022-11-20T05:52:28;-1.10;99.90
7958;DHT22;4024;52.172;5.378;2022-11-20T05:54:54;-1.10;99.90
7958;DHT22;4024;52.172;5.378;2022-11-20T05:57:20;-1.10;99.90
7958;DHT22;4024;52.172;5.378;2022-11-20T05:59:45;-1.10;99.90
7958;DHT22;4024;52.172;5.378;2022-11-20T06:02:11;-1.20;99.90
7958;DHT22;4024;52.172;5.378;2022-11-20T06:04:37;-1.20;99.90
7958;DHT22;4024;52.172;5.378;2022-11-20T06:07:04;-1.20;99.90
7958;DHT22;4024;52.172;5.378;2022-11-20T06:09:30;-1.20;99.90
7958;DHT22;4024;52.172;5.378;2022-11-20T06:11:56;-1.20;99.90
7958;DHT22;4024;52.172;5.378;2022-11-20T06:14:23;-1.30;99.90
7958;DHT22;4024;52.172;5.378;2022-11-20T06:16:49;-1.30;99.90
7958;DHT22;4024;52.172;5.378;2022-11-20T06:19:14;-1.30;99.90
7958;DHT22;4024;52.172;5.378;2022-11-20T06:21:40;-1.30;99.90
7958;DHT22;4024;52.172;5.378;2022-11-20T06:24:06;-1.30;99.90
7958;DHT22;4024;52.172;5.378;2022-11-20T06:26:34;-1.30;99.90
7958;DHT22;4024;52.172;5.378;2022-11-20T06:28:59;-1.30;99.90
7958;DHT22;4024;52.172;5.378;2022-11-20T06:31:26;-1.30;99.90
7958;DHT22;4024;52.172;5.378;2022-11-20T06:33:52;-1.30;99.90
7958;DHT22;4024;52.172;5.378;2022-11-20T06:36:19;-1.30;99.90
7958;DHT22;4024;52.172;5.378;2022-11-20T06:38:46;-1.30;99.90
7958;DHT22;4024;52.172;5.378;2022-11-20T06:41:14;-1.30;99.90
7958;DHT22;4024;52.172;5.378;2022-11-20T06:43:40;-1.30;99.90
7958;DHT22;4024;52.172;5.378;2022-11-20T06:46:06;-1.30;99.90
7958;DHT22;4024;52.172;5.378;2022-11-20T06:48:32;-1.30;99.90
7958;DHT22;4024;52.172;5.378;2022-11-20T06:50:58;-1.30;99.90
7958;DHT22;4024;52.172;5.378;2022-11-20T06:53:23;-1.30;99.90
7958;DHT22;4024;52.172;5.378;2022-11-20T06:55:50;-1.30;99.90
7958;DHT22;4024;52.172;5.378;2022-11-20T06:58:17;-1.30;99.90
7958;DHT22;4024;52.172;5.378;2022-11-20T07:00:43;-1.30;99.90
7958;DHT22;4024;52.172;5.378;2022-11-20T07:03:10;-1.30;99.90
7958;DHT22;4024;52.172;5.378;2022-11-20T07:05:36;-1.30;99.90
7958;DHT22;4024;52.172;5.378;2022-11-20T07:08:03;-1.20;99.90
7958;DHT22;4024;52.172;5.378;2022-11-20T07:10:28;-1.20;99.90
7958;DHT22;4024;52.172;5.378;2022-11-20T07:12:54;-1.20;99.90
7958;DHT22;4024;52.172;5.378;2022-11-20T07:15:21;-1.20;99.90
7958;DHT22;4024;52.172;5.378;2022-11-20T07:17:47;-1.20;99.90
7958;DHT22;4024;52.172;5.378;2022-11-20T07:20:13;-1.10;99.90
7958;DHT22;4024;52.172;5.378;2022-11-20T07:22:39;-1.10;99.90
7958;DHT22;4024;52.172;5.378;2022-11-20T07:25:06;-1.10;99.90
7958;DHT22;4024;52.172;5.378;2022-11-20T07:27:33;-1.10;99.90
7958;DHT22;4024;52.172;5.378;2022-11-20T07:30:04;-1.10;99.90
7958;DHT22;4024;52.172;5.378;2022-11-20T07:32:30;-1.10;99.90
7958;DHT22;4024;52.172;5.378;2022-11-20T07:34:56;-1.10;99.90
7958;DHT22;4024;52.172;5.378;2022-11-20T07:37:22;-1.00;99.90
7958;DHT22;4024;52.172;5.378;2022-11-20T07:39:47;-1.00;99.90
7958;DHT22;4024;52.172;5.378;2022-11-20T07:42:13;-1.00;99.90
7958;DHT22;4024;52.172;5.378;2022-11-20T07:44:38;-1.00;99.90
7958;DHT22;4024;52.172;5.378;2022-11-20T07:47:04;-1.00;99.90
7958;DHT22;4024;52.172;5.378;2022-11-20T07:49:30;-1.00;99.90
7958;DHT22;4024;52.172;5.378;2022-11-20T07:51:55;-0.90;99.90
7958;DHT22;4024;52.172;5.378;2022-11-20T07:54:22;-0.90;99.90
7958;DHT22;4024;52.172;5.378;2022-11-20T07:56:49;-0.90;99.90
7958;DHT22;4024;52.172;5.378;2022-11-20T07:59:15;-0.90;99.90
7958;DHT22;4024;52.172;5.378;2022-11-20T08:01:41;-0.80;99.90
7958;DHT22;4024;52.172;5.378;2022-11-20T08:04:08;-0.70;99.90
7958;DHT22;4024;52.172;5.378;2022-11-20T08:06:35;-0.70;99.90
7958;DHT22;4024;52.172;5.378;2022-11-20T08:09:00;-0.70;99.90
7958;DHT22;4024;52.172;5.378;2022-11-20T08:11:26;-0.60;99.90
7958;DHT22;4024;52.172;5.378;2022-11-20T08:14:10;-0.60;99.90
7958;DHT22;4024;52.172;5.378;2022-11-20T08:16:40;-0.50;99.90
7958;DHT22;4024;52.172;5.378;2022-11-20T08:19:06;-0.50;99.90
7958;DHT22;4024;52.172;5.378;2022-11-20T08:21:32;-0.50;99.90
7958;DHT22;4024;52.172;5.378;2022-11-20T08:23:58;-0.40;99.90
7958;DHT22;4024;52.172;5.378;2022-11-20T08:26:25;-0.40;99.90
7958;DHT22;4024;52.172;5.378;2022-11-20T08:28:55;-0.30;99.90
7958;DHT22;4024;52.172;5.378;2022-11-20T08:31:22;-0.20;99.90
7958;DHT22;4024;52.172;5.378;2022-11-20T08:33:48;-0.20;99.90
7958;DHT22;4024;52.172;5.378;2022-11-20T08:36:14;-0.10;99.90
7958;DHT22;4024;52.172;5.378;2022-11-20T08:38:40;-0.10;99.90
7958;DHT22;4024;52.172;5.378;2022-11-20T08:41:06;0.00;99.90
7958;DHT22;4024;52.172;5.378;2022-11-20T08:46:25;0.10;99.90
7958;DHT22;4024;52.172;5.378;2022-11-20T08:48:51;0.20;99.90
7958;DHT22;4024;52.172;5.378;2022-11-20T08:51:17;0.20;99.90
7958;DHT22;4024;52.172;5.378;2022-11-20T08:53:43;0.30;99.90
7958;DHT22;4024;52.172;5.378;2022-11-20T08:56:09;0.30;99.90
7958;DHT22;4024;52.172;5.378;2022-11-20T08:58:35;0.40;99.90
7958;DHT22;4024;52.172;5.378;2022-11-20T09:01:01;0.40;99.90
7958;DHT22;4024;52.172;5.378;2022-11-20T09:03:28;0.50;99.90
7958;DHT22;4024;52.172;5.378;2022-11-20T09:05:58;0.50;99.90
7958;DHT22;4024;52.172;5.378;2022-11-20T09:08:24;0.60;99.90
7958;DHT22;4024;52.172;5.378;2022-11-20T09:10:53;0.70;99.90
7958;DHT22;4024;52.172;5.378;2022-11-20T09:13:23;0.70;99.90
7958;DHT22;4024;52.172;5.378;2022-11-20T09:15:56;0.80;99.90
7958;DHT22;4024;52.172;5.378;2022-11-20T09:18:22;0.80;99.90
7958;DHT22;4024;52.172;5.378;2022-11-20T09:20:48;0.80;99.90
7958;DHT22;4024;52.172;5.378;2022-11-20T09:23:14;0.80;99.90
7958;DHT22;4024;52.172;5.378;2022-11-20T09:25:40;1.00;99.90
7958;DHT22;4024;52.172;5.378;2022-11-20T09:28:06;1.00;99.90
7958;DHT22;4024;52.172;5.378;2022-11-20T09:30:31;1.10;99.90
7958;DHT22;4024;52.172;5.378;2022-11-20T09:32:57;1.10;99.90
7958;DHT22;4024;52.172;5.378;2022-11-20T09:35:22;1.20;99.90
7958;DHT22;4024;52.172;5.378;2022-11-20T09:37:48;1.30;99.90
7958;DHT22;4024;52.172;5.378;2022-11-20T09:40:20;1.30;99.90
7958;DHT22;4024;52.172;5.378;2022-11-20T09:42:57;1.40;99.90
7958;DHT22;4024;52.172;5.378;2022-11-20T09:46:08;1.40;99.90
7958;DHT22;4024;52.172;5.378;2022-11-20T09:51:46;1.60;99.90
7958;DHT22;4024;52.172;5.378;2022-11-20T09:54:17;1.60;99.90
7958;DHT22;4024;52.172;5.378;2022-11-20T09:57:01;1.70;99.90
7958;DHT22;4024;52.172;5.378;2022-11-20T09:59:43;1.70;99.90
7958;DHT22;4024;52.172;5.378;2022-11-20T10:02:30;1.80;99.90
7958;DHT22;4024;52.172;5.378;2022-11-20T10:08:30;1.90;99.90
7958;DHT22;4024;52.172;5.378;2022-11-20T10:11:07;2.00;99.90
7958;DHT22;4024;52.172;5.378;2022-11-20T10:14:41;2.00;99.90
7958;DHT22;4024;52.172;5.378;2022-11-20T10:30:14;2.30;99.90
7958;DHT22;4024;52.172;5.378;2022-11-20T10:32:43;2.40;99.90
7958;DHT22;4024;52.172;5.378;2022-11-20T10:35:42;2.40;99.90
7958;DHT22;4024;52.172;5.378;2022-11-20T10:38:23;2.50;99.90
7958;DHT22;4024;52.172;5.378;2022-11-20T10:40:59;2.50;99.90
7958;DHT22;4024;52.172;5.378;2022-11-20T10:43:46;2.60;99.90
7958;DHT22;4024;52.172;5.378;2022-11-20T10:46:18;2.60;99.90
7958;DHT22;4024;52.172;5.378;2022-11-20T10:48:46;2.60;99.90
7958;DHT22;4024;52.172;5.378;2022-11-20T10:54:13;2.70;99.90
7958;DHT22;4024;52.172;5.378;2022-11-20T10:56:53;2.80;99.90
7958;DHT22;4024;52.172;5.378;2022-11-20T11:01:59;2.80;99.90
7958;DHT22;4024;52.172;5.378;2022-11-20T11:07:42;2.90;99.90
7958;DHT22;4024;52.172;5.378;2022-11-20T11:09:48;3.00;99.90
7958;DHT22;4024;52.172;5.378;2022-11-20T11:12:14;3.00;99.90
7958;DHT22;4024;52.172;5.378;2022-11-20T11:14:51;3.10;99.90
7958;DHT22;4024;52.172;5.378;2022-11-20T11:17:25;3.10;99.90
7958;DHT22;4024;52.172;5.378;2022-11-20T11:19:59;3.20;99.90
7958;DHT22;4024;52.172;5.378;2022-11-20T11:22:29;3.20;99.90
7958;DHT22;4024;52.172;5.378;2022-11-20T11:24:54;3.30;99.90
7958;DHT22;4024;52.172;5.378;2022-11-20T11:27:20;3.30;99.90
7958;DHT22;4024;52.172;5.378;2022-11-20T11:29:46;3.30;99.90
7958;DHT22;4024;52.172;5.378;2022-11-20T11:34:39;3.40;99.90
7958;DHT22;4024;52.172;5.378;2022-11-20T11:37:10;3.40;99.90
7958;DHT22;4024;52.172;5.378;2022-11-20T11:39:41;3.50;99.90
7958;DHT22;4024;52.172;5.378;2022-11-20T11:42:13;3.50;99.90
7958;DHT22;4024;52.172;5.378;2022-11-20T11:44:45;3.60;99.90
7958;DHT22;4024;52.172;5.378;2022-11-20T11:47:32;3.60;99.90
7958;DHT22;4024;52.172;5.378;2022-11-20T11:50:14;3.70;99.90
7958;DHT22;4024;52.172;5.378;2022-11-20T11:55:56;3.80;99.90
7958;DHT22;4024;52.172;5.378;2022-11-20T12:01:35;3.80;99.90
7958;DHT22;4024;52.172;5.378;2022-11-20T12:04:14;3.90;99.90
7958;DHT22;4024;52.172;5.378;2022-11-20T12:06:45;3.90;99.90
7958;DHT22;4024;52.172;5.378;2022-11-20T12:09:13;3.90;99.90
7958;DHT22;4024;52.172;5.378;2022-11-20T12:12:09;4.00;99.90
7958;DHT22;4024;52.172;5.378;2022-11-20T12:14:37;4.00;99.90
7958;DHT22;4024;52.172;5.378;2022-11-20T12:17:03;4.00;99.90
7958;DHT22;4024;52.172;5.378;2022-11-20T12:19:31;4.00;99.90
7958;DHT22;4024;52.172;5.378;2022-11-20T12:30:16;4.20;99.90
7958;DHT22;4024;52.172;5.378;2022-11-20T12:33:04;4.20;99.90
7958;DHT22;4024;52.172;5.378;2022-11-20T12:41:17;4.30;99.90
7958;DHT22;4024;52.172;5.378;2022-11-20T12:47:57;4.30;99.90
7958;DHT22;4024;52.172;5.378;2022-11-20T12:54:08;4.40;99.90
7958;DHT22;4024;52.172;5.378;2022-11-20T13:01:57;4.40;99.90
7958;DHT22;4024;52.172;5.378;2022-11-20T13:04:59;4.50;99.90
7958;DHT22;4024;52.172;5.378;2022-11-20T13:07:32;4.50;99.90
7958;DHT22;4024;52.172;5.378;2022-11-20T13:09:59;4.50;99.90
7958;DHT22;4024;52.172;5.378;2022-11-20T13:12:33;4.50;99.90
7958;DHT22;4024;52.172;5.378;2022-11-20T13:18:09;4.50;99.90
7958;DHT22;4024;52.172;5.378;2022-11-20T13:20:44;4.60;99.90
7958;DHT22;4024;52.172;5.378;2022-11-20T13:23:10;4.60;99.90
7958;DHT22;4024;52.172;5.378;2022-11-20T13:25:39;4.60;99.90
7958;DHT22;4024;52.172;5.378;2022-11-20T13:28:28;4.60;99.90
7958;DHT22;4024;52.172;5.378;2022-11-20T13:30:55;4.60;99.90
7958;DHT22;4024;52.172;5.378;2022-11-20T13:33:36;4.60;99.90
7958;DHT22;4024;52.172;5.378;2022-11-20T13:38:48;4.70;99.90
7958;DHT22;4024;52.172;5.378;2022-11-20T13:41:41;4.70;99.90
7958;DHT22;4024;52.172;5.378;2022-11-20T13:46:50;4.70;99.90
7958;DHT22;4024;52.172;5.378;2022-11-20T13:49:39;4.70;99.90
7958;DHT22;4024;52.172;5.378;2022-11-20T13:55:35;4.80;99.90
7958;DHT22;4024;52.172;5.378;2022-11-20T13:59:05;4.80;99.90
7958;DHT22;4024;52.172;5.378;2022-11-20T14:01:16;4.80;99.90
7958;DHT22;4024;52.172;5.378;2022-11-20T14:03:43;4.80;99.90
7958;DHT22;4024;52.172;5.378;2022-11-20T14:06:18;4.80;99.90
7958;DHT22;4024;52.172;5.378;2022-11-20T14:08:48;4.80;99.90
7958;DHT22;4024;52.172;5.378;2022-11-20T14:11:19;4.70;99.90
7958;DHT22;4024;52.172;5.378;2022-11-20T14:16:21;4.80;99.90
7958;DHT22;4024;52.172;5.378;2022-11-20T14:18:47;4.80;99.90
7958;DHT22;4024;52.172;5.378;2022-11-20T14:21:25;4.80;99.90
7958;DHT22;4024;52.172;5.378;2022-11-20T14:24:11;4.80;99.90
7958;DHT22;4024;52.172;5.378;2022-11-20T14:26:41;4.80;99.90
7958;DHT22;4024;52.172;5.378;2022-11-20T14:29:18;4.80;99.90
7958;DHT22;4024;52.172;5.378;2022-11-20T14:31:46;4.80;99.90
7958;DHT22;4024;52.172;5.378;2022-11-20T14:34:16;4.80;99.90
7958;DHT22;4024;52.172;5.378;2022-11-20T14:36:43;4.80;99.90
7958;DHT22;4024;52.172;5.378;2022-11-20T14:39:12;4.80;99.90
7958;DHT22;4024;52.172;5.378;2022-11-20T14:41:51;4.80;99.90
7958;DHT22;4024;52.172;5.378;2022-11-20T14:44:17;4.80;99.90
7958;DHT22;4024;52.172;5.378;2022-11-20T14:46:43;4.80;99.90
7958;DHT22;4024;52.172;5.378;2022-11-20T14:49:10;4.80;99.90
7958;DHT22;4024;52.172;5.378;2022-11-20T14:51:38;4.90;99.90
7958;DHT22;4024;52.172;5.378;2022-11-20T14:54:11;4.80;99.90
7958;DHT22;4024;52.172;5.378;2022-11-20T14:56:37;4.80;99.90
7958;DHT22;4024;52.172;5.378;2022-11-20T14:59:03;4.80;99.90
7958;DHT22;4024;52.172;5.378;2022-11-20T15:01:30;4.80;99.90
7958;DHT22;4024;52.172;5.378;2022-11-20T15:04:11;4.90;99.90
7958;DHT22;4024;52.172;5.378;2022-11-20T15:06:37;4.80;99.90
7958;DHT22;4024;52.172;5.378;2022-11-20T15:09:14;4.90;99.90
7958;DHT22;4024;52.172;5.378;2022-11-20T15:14:19;4.90;99.90
7958;DHT22;4024;52.172;5.378;2022-11-20T15:16:45;4.90;99.90
7958;DHT22;4024;52.172;5.378;2022-11-20T15:19:19;4.90;99.90
7958;DHT22;4024;52.172;5.378;2022-11-20T15:21:45;4.90;99.90
7958;DHT22;4024;52.172;5.378;2022-11-20T15:24:11;4.90;99.90
7958;DHT22;4024;52.172;5.378;2022-11-20T15:26:38;4.80;99.90
7958;DHT22;4024;52.172;5.378;2022-11-20T15:29:09;4.90;99.90
7958;DHT22;4024;52.172;5.378;2022-11-20T15:31:36;4.90;99.90
7958;DHT22;4024;52.172;5.378;2022-11-20T15:34:04;4.90;99.90
7958;DHT22;4024;52.172;5.378;2022-11-20T15:36:32;4.90;99.90
7958;DHT22;4024;52.172;5.378;2022-11-20T15:38:57;4.90;99.90
7958;DHT22;4024;52.172;5.378;2022-11-20T15:41:23;4.90;99.90
7958;DHT22;4024;52.172;5.378;2022-11-20T15:43:48;4.90;99.90
7958;DHT22;4024;52.172;5.378;2022-11-20T15:46:16;4.90;99.90
7958;DHT22;4024;52.172;5.378;2022-11-20T15:48:51;4.90;99.90
7958;DHT22;4024;52.172;5.378;2022-11-20T15:51:37;4.80;99.90
7958;DHT22;4024;52.172;5.378;2022-11-20T15:54:21;4.90;99.90
7958;DHT22;4024;52.172;5.378;2022-11-20T15:56:48;4.80;99.90
7958;DHT22;4024;52.172;5.378;2022-11-20T15:59:14;4.90;99.90
7958;DHT22;4024;52.172;5.378;2022-11-20T16:01:40;4.80;99.90
7958;DHT22;4024;52.172;5.378;2022-11-20T16:04:14;4.80;99.90
7958;DHT22;4024;52.172;5.378;2022-11-20T16:06:40;4.80;99.90
7958;DHT22;4024;52.172;5.378;2022-11-20T16:09:07;4.80;99.90
7958;DHT22;4024;52.172;5.378;2022-11-20T16:11:33;4.90;99.90
7958;DHT22;4024;52.172;5.378;2022-11-20T16:14:02;4.90;99.90
7958;DHT22;4024;52.172;5.378;2022-11-20T16:16:46;4.90;99.90
7958;DHT22;4024;52.172;5.378;2022-11-20T16:19:15;4.90;99.90
7958;DHT22;4024;52.172;5.378;2022-11-20T16:21:41;4.90;99.90
7958;DHT22;4024;52.172;5.378;2022-11-20T16:24:10;4.90;99.90
7958;DHT22;4024;52.172;5.378;2022-11-20T16:26:37;4.90;99.90
7958;DHT22;4024;52.172;5.378;2022-11-20T16:29:03;4.90;99.90
7958;DHT22;4024;52.172;5.378;2022-11-20T16:31:30;4.90;99.90
7958;DHT22;4024;52.172;5.378;2022-11-20T16:33:58;4.90;99.90
7958;DHT22;4024;52.172;5.378;2022-11-20T16:36:25;4.90;99.90
7958;DHT22;4024;52.172;5.378;2022-11-20T16:38:57;4.90;99.90
7958;DHT22;4024;52.172;5.378;2022-11-20T16:41:24;4.90;99.90
7958;DHT22;4024;52.172;5.378;2022-11-20T16:43:53;5.00;99.90
7958;DHT22;4024;52.172;5.378;2022-11-20T16:46:21;5.00;99.90
7958;DHT22;4024;52.172;5.378;2022-11-20T16:48:55;5.00;99.90
7958;DHT22;4024;52.172;5.378;2022-11-20T16:51:22;5.00;99.90
7958;DHT22;4024;52.172;5.378;2022-11-20T16:53:48;5.00;99.90
7958;DHT22;4024;52.172;5.378;2022-11-20T16:56:17;5.00;99.90
7958;DHT22;4024;52.172;5.378;2022-11-20T16:58:44;5.10;99.90
7958;DHT22;4024;52.172;5.378;2022-11-20T17:01:12;5.10;99.90
7958;DHT22;4024;52.172;5.378;2022-11-20T17:03:39;5.10;99.90
7958;DHT22;4024;52.172;5.378;2022-11-20T17:06:16;5.10;99.90
7958;DHT22;4024;52.172;5.378;2022-11-20T17:08:43;5.10;99.90
7958;DHT22;4024;52.172;5.378;2022-11-20T17:11:10;5.10;99.90
7958;DHT22;4024;52.172;5.378;2022-11-20T17:13:37;5.10;99.90
7958;DHT22;4024;52.172;5.378;2022-11-20T17:16:05;5.20;99.90
7958;DHT22;4024;52.172;5.378;2022-11-20T17:18:31;5.20;99.90
7958;DHT22;4024;52.172;5.378;2022-11-20T17:20:57;5.20;99.90
7958;DHT22;4024;52.172;5.378;2022-11-20T17:23:27;5.20;99.90
7958;DHT22;4024;52.172;5.378;2022-11-20T17:26:06;5.20;99.90
7958;DHT22;4024;52.172;5.378;2022-11-20T17:28:34;5.20;99.90
7958;DHT22;4024;52.172;5.378;2022-11-20T17:31:08;5.30;99.90
7958;DHT22;4024;52.172;5.378;2022-11-20T17:33:36;5.30;99.90
7958;DHT22;4024;52.172;5.378;2022-11-20T17:36:02;5.30;99.90
7958;DHT22;4024;52.172;5.378;2022-11-20T17:38:28;5.30;99.90
7958;DHT22;4024;52.172;5.378;2022-11-20T17:41:04;5.30;99.90
7958;DHT22;4024;52.172;5.378;2022-11-20T17:43:31;5.30;99.90
7958;DHT22;4024;52.172;5.378;2022-11-20T17:45:57;5.30;99.90
7958;DHT22;4024;52.172;5.378;2022-11-20T17:48:23;5.30;99.90
7958;DHT22;4024;52.172;5.378;2022-11-20T17:50:49;5.30;99.90
7958;DHT22;4024;52.172;5.378;2022-11-20T17:53:15;5.30;99.90
7958;DHT22;4024;52.172;5.378;2022-11-20T17:55:40;5.30;99.90
7958;DHT22;4024;52.172;5.378;2022-11-20T17:58:28;5.30;99.90